sensor_id;sensor_type;location;lat;lon;timestamp;P1;durP1;ratioP1;P2;durP2;ratioP2
10503;SDS011;5299;48.704;9.138;2022-07-01T00:00:51;3.83;;;0.95;;
10503;SDS011;5299;48.704;9.138;2022-07-01T00:04:52;4.32;;;1.60;;
10503;SDS011;5299;48.704;9.138;2022-07-01T00:08:54;2.92;;;1.17;;
10503;SDS011;5299;48.704;9.138;2022-07-01T00:12:56;2.78;;;1.05;;
10503;SDS011;5299;48.704;9.138;2022-07-01T00:16:57;4.45;;;0.85;;
10503;SDS011;5299;48.704;9.138;2022-07-01T00:20:59;2.40;;;1.02;;
10503;SDS011;5299;48.704;9.138;2022-07-01T00:25:02;4.28;;;1.00;;
10503;SDS011;5299;48.704;9.138;2022-07-01T00:29:04;4.50;;;1.05;;
10503;SDS011;5299;48.704;9.138;2022-07-01T00:33:05;1.70;;;0.70;;
10503;SDS011;5299;48.704;9.138;2022-07-01T00:37:07;4.85;;;0.70;;
10503;SDS011;5299;48.704;9.138;2022-07-01T00:41:08;1.33;;;0.88;;
10503;SDS011;5299;48.704;9.138;2022-07-01T00:45:11;1.30;;;0.80;;
10503;SDS011;5299;48.704;9.138;2022-07-01T00:49:12;2.38;;;0.90;;
10503;SDS011;5299;48.704;9.138;2022-07-01T00:53:14;4.13;;;1.35;;
10503;SDS011;5299;48.704;9.138;2022-07-01T00:57:16;2.05;;;0.75;;
10503;SDS011;5299;48.704;9.138;2022-07-01T01:01:17;3.72;;;1.02;;
10503;SDS011;5299;48.704;9.138;2022-07-01T01:05:20;1.42;;;0.88;;
10503;SDS011;5299;48.704;9.138;2022-07-01T01:09:23;2.17;;;0.73;;
10503;SDS011;5299;48.704;9.138;2022-07-01T01:13:24;0.93;;;0.70;;
10503;SDS011;5299;48.704;9.138;2022-07-01T01:17:26;1.58;;;0.75;;
10503;SDS011;5299;48.704;9.138;2022-07-01T01:21:28;1.20;;;0.70;;
10503;SDS011;5299;48.704;9.138;2022-07-01T01:25:29;5.60;;;0.95;;
10503;SDS011;5299;48.704;9.138;2022-07-01T01:29:32;2.08;;;1.00;;
10503;SDS011;5299;48.704;9.138;2022-07-01T01:33:36;1.80;;;0.98;;
10503;SDS011;5299;48.704;9.138;2022-07-01T01:37:39;2.80;;;0.70;;
10503;SDS011;5299;48.704;9.138;2022-07-01T01:41:40;3.20;;;1.20;;
10503;SDS011;5299;48.704;9.138;2022-07-01T01:45:42;4.07;;;1.00;;
10503;SDS011;5299;48.704;9.138;2022-07-01T01:49:43;3.45;;;1.00;;
10503;SDS011;5299;48.704;9.138;2022-07-01T01:53:45;3.13;;;0.90;;
10503;SDS011;5299;48.704;9.138;2022-07-01T01:57:46;3.50;;;1.10;;
10503;SDS011;5299;48.704;9.138;2022-07-01T02:01:48;2.35;;;0.90;;
10503;SDS011;5299;48.704;9.138;2022-07-01T02:05:49;1.13;;;0.70;;
10503;SDS011;5299;48.704;9.138;2022-07-01T02:09:51;2.50;;;1.00;;
10503;SDS011;5299;48.704;9.138;2022-07-01T02:13:53;2.58;;;1.48;;
10503;SDS011;5299;48.704;9.138;2022-07-01T02:17:54;3.40;;;1.13;;
10503;SDS011;5299;48.704;9.138;2022-07-01T02:21:57;2.75;;;1.33;;
10503;SDS011;5299;48.704;9.138;2022-07-01T02:25:59;2.47;;;1.48;;
10503;SDS011;5299;48.704;9.138;2022-07-01T02:30:00;3.58;;;1.38;;
10503;SDS011;5299;48.704;9.138;2022-07-01T02:34:02;4.45;;;1.50;;
10503;SDS011;5299;48.704;9.138;2022-07-01T02:38:03;2.35;;;1.50;;
10503;SDS011;5299;48.704;9.138;2022-07-01T02:42:05;2.65;;;1.30;;
10503;SDS011;5299;48.704;9.138;2022-07-01T02:46:27;3.33;;;1.33;;
10503;SDS011;5299;48.704;9.138;2022-07-01T02:50:29;3.53;;;2.08;;
10503;SDS011;5299;48.704;9.138;2022-07-01T02:54:31;5.47;;;2.13;;
10503;SDS011;5299;48.704;9.138;2022-07-01T02:58:33;4.43;;;2.20;;
10503;SDS011;5299;48.704;9.138;2022-07-01T03:02:34;4.03;;;2.05;;
10503;SDS011;5299;48.704;9.138;2022-07-01T03:06:36;4.32;;;2.28;;
10503;SDS011;5299;48.704;9.138;2022-07-01T03:10:37;3.78;;;2.17;;
10503;SDS011;5299;48.704;9.138;2022-07-01T03:14:39;4.53;;;2.10;;
10503;SDS011;5299;48.704;9.138;2022-07-01T03:18:41;4.05;;;1.65;;
10503;SDS011;5299;48.704;9.138;2022-07-01T03:22:43;7.80;;;2.15;;
10503;SDS011;5299;48.704;9.138;2022-07-01T03:26:45;2.42;;;1.23;;
10503;SDS011;5299;48.704;9.138;2022-07-01T03:30:47;2.65;;;1.40;;
10503;SDS011;5299;48.704;9.138;2022-07-01T03:34:49;3.47;;;1.48;;
10503;SDS011;5299;48.704;9.138;2022-07-01T03:38:52;7.13;;;3.58;;
10503;SDS011;5299;48.704;9.138;2022-07-01T03:42:53;1.90;;;1.10;;
10503;SDS011;5299;48.704;9.138;2022-07-01T03:46:55;2.20;;;1.10;;
10503;SDS011;5299;48.704;9.138;2022-07-01T03:50:56;1.67;;;0.90;;
10503;SDS011;5299;48.704;9.138;2022-07-01T03:54:58;1.65;;;1.00;;
10503;SDS011;5299;48.704;9.138;2022-07-01T03:58:59;1.65;;;1.08;;
10503;SDS011;5299;48.704;9.138;2022-07-01T04:03:02;1.85;;;0.90;;
10503;SDS011;5299;48.704;9.138;2022-07-01T04:07:04;1.50;;;0.80;;
10503;SDS011;5299;48.704;9.138;2022-07-01T04:11:07;3.33;;;0.90;;
10503;SDS011;5299;48.704;9.138;2022-07-01T04:15:10;2.17;;;1.10;;
10503;SDS011;5299;48.704;9.138;2022-07-01T04:19:13;1.08;;;0.80;;
10503;SDS011;5299;48.704;9.138;2022-07-01T04:23:15;2.22;;;1.08;;
10503;SDS011;5299;48.704;9.138;2022-07-01T04:27:16;2.60;;;0.82;;
10503;SDS011;5299;48.704;9.138;2022-07-01T04:31:18;2.53;;;0.90;;
10503;SDS011;5299;48.704;9.138;2022-07-01T04:35:20;1.85;;;1.02;;
10503;SDS011;5299;48.704;9.138;2022-07-01T04:39:21;2.47;;;1.00;;
10503;SDS011;5299;48.704;9.138;2022-07-01T04:43:23;5.70;;;1.25;;
10503;SDS011;5299;48.704;9.138;2022-07-01T04:47:24;3.15;;;1.17;;
10503;SDS011;5299;48.704;9.138;2022-07-01T04:51:26;4.82;;;1.17;;
10503;SDS011;5299;48.704;9.138;2022-07-01T04:55:27;3.80;;;2.05;;
10503;SDS011;5299;48.704;9.138;2022-07-01T04:59:29;3.83;;;1.30;;
10503;SDS011;5299;48.704;9.138;2022-07-01T05:03:30;2.35;;;0.90;;
10503;SDS011;5299;48.704;9.138;2022-07-01T05:07:32;3.88;;;1.30;;
10503;SDS011;5299;48.704;9.138;2022-07-01T05:11:34;2.45;;;1.17;;
10503;SDS011;5299;48.704;9.138;2022-07-01T05:15:35;3.03;;;1.38;;
10503;SDS011;5299;48.704;9.138;2022-07-01T05:19:37;1.58;;;0.98;;
10503;SDS011;5299;48.704;9.138;2022-07-01T05:23:57;7.68;;;1.15;;
10503;SDS011;5299;48.704;9.138;2022-07-01T05:27:59;1.58;;;0.90;;
10503;SDS011;5299;48.704;9.138;2022-07-01T05:32:00;2.88;;;1.08;;
10503;SDS011;5299;48.704;9.138;2022-07-01T05:36:02;3.55;;;1.40;;
10503;SDS011;5299;48.704;9.138;2022-07-01T05:40:03;4.38;;;1.15;;
10503;SDS011;5299;48.704;9.138;2022-07-01T05:44:05;2.03;;;1.25;;
10503;SDS011;5299;48.704;9.138;2022-07-01T05:48:07;2.33;;;1.08;;
10503;SDS011;5299;48.704;9.138;2022-07-01T05:52:08;1.70;;;1.23;;
10503;SDS011;5299;48.704;9.138;2022-07-01T05:56:09;4.35;;;1.35;;
10503;SDS011;5299;48.704;9.138;2022-07-01T06:00:11;2.88;;;1.60;;
10503;SDS011;5299;48.704;9.138;2022-07-01T06:04:13;6.47;;;2.55;;
10503;SDS011;5299;48.704;9.138;2022-07-01T06:08:15;8.43;;;1.38;;
10503;SDS011;5299;48.704;9.138;2022-07-01T06:12:16;2.10;;;1.15;;
10503;SDS011;5299;48.704;9.138;2022-07-01T06:16:18;1.73;;;1.17;;
10503;SDS011;5299;48.704;9.138;2022-07-01T06:20:20;3.05;;;1.05;;
10503;SDS011;5299;48.704;9.138;2022-07-01T06:24:21;2.13;;;0.93;;
10503;SDS011;5299;48.704;9.138;2022-07-01T06:28:23;2.75;;;1.33;;
10503;SDS011;5299;48.704;9.138;2022-07-01T06:32:27;4.45;;;1.40;;
10503;SDS011;5299;48.704;9.138;2022-07-01T06:36:28;5.13;;;2.25;;
10503;SDS011;5299;48.704;9.138;2022-07-01T06:40:29;2.40;;;1.30;;
10503;SDS011;5299;48.704;9.138;2022-07-01T06:44:31;5.97;;;1.83;;
10503;SDS011;5299;48.704;9.138;2022-07-01T06:48:32;3.13;;;1.52;;
10503;SDS011;5299;48.704;9.138;2022-07-01T06:52:34;7.05;;;1.90;;
10503;SDS011;5299;48.704;9.138;2022-07-01T06:56:36;3.40;;;1.65;;
10503;SDS011;5299;48.704;9.138;2022-07-01T07:00:37;3.85;;;1.67;;
10503;SDS011;5299;48.704;9.138;2022-07-01T07:04:39;4.15;;;1.92;;
10503;SDS011;5299;48.704;9.138;2022-07-01T07:09:00;3.65;;;1.60;;
10503;SDS011;5299;48.704;9.138;2022-07-01T07:13:01;2.25;;;1.13;;
10503;SDS011;5299;48.704;9.138;2022-07-01T07:17:03;2.78;;;1.30;;
10503;SDS011;5299;48.704;9.138;2022-07-01T07:21:06;2.78;;;1.30;;
10503;SDS011;5299;48.704;9.138;2022-07-01T07:25:07;2.78;;;1.23;;
10503;SDS011;5299;48.704;9.138;2022-07-01T07:29:09;2.70;;;1.35;;
10503;SDS011;5299;48.704;9.138;2022-07-01T07:33:10;6.20;;;1.60;;
10503;SDS011;5299;48.704;9.138;2022-07-01T07:37:13;6.35;;;1.48;;
10503;SDS011;5299;48.704;9.138;2022-07-01T07:41:14;3.97;;;2.30;;
10503;SDS011;5299;48.704;9.138;2022-07-01T07:45:16;4.55;;;2.08;;
10503;SDS011;5299;48.704;9.138;2022-07-01T07:49:20;7.15;;;1.98;;
10503;SDS011;5299;48.704;9.138;2022-07-01T07:53:22;1.90;;;1.10;;
10503;SDS011;5299;48.704;9.138;2022-07-01T07:57:23;3.70;;;1.55;;
10503;SDS011;5299;48.704;9.138;2022-07-01T08:01:25;4.65;;;1.60;;
10503;SDS011;5299;48.704;9.138;2022-07-01T08:05:26;4.80;;;1.30;;
10503;SDS011;5299;48.704;9.138;2022-07-01T08:09:28;4.00;;;1.13;;
10503;SDS011;5299;48.704;9.138;2022-07-01T08:13:30;3.17;;;1.05;;
10503;SDS011;5299;48.704;9.138;2022-07-01T08:17:31;3.83;;;1.08;;
10503;SDS011;5299;48.704;9.138;2022-07-01T08:21:33;1.73;;;0.90;;
10503;SDS011;5299;48.704;9.138;2022-07-01T08:25:34;5.35;;;0.98;;
10503;SDS011;5299;48.704;9.138;2022-07-01T08:29:36;1.90;;;0.88;;
10503;SDS011;5299;48.704;9.138;2022-07-01T08:33:39;1.73;;;0.80;;
10503;SDS011;5299;48.704;9.138;2022-07-01T08:37:41;1.70;;;0.90;;
10503;SDS011;5299;48.704;9.138;2022-07-01T08:41:43;1.58;;;1.00;;
10503;SDS011;5299;48.704;9.138;2022-07-01T08:45:45;5.78;;;1.13;;
10503;SDS011;5299;48.704;9.138;2022-07-01T08:49:46;3.60;;;1.02;;
10503;SDS011;5299;48.704;9.138;2022-07-01T08:53:48;1.55;;;1.00;;
10503;SDS011;5299;48.704;9.138;2022-07-01T08:57:50;1.85;;;0.75;;
10503;SDS011;5299;48.704;9.138;2022-07-01T09:01:55;1.33;;;0.70;;
10503;SDS011;5299;48.704;9.138;2022-07-01T09:05:58;1.33;;;0.85;;
10503;SDS011;5299;48.704;9.138;2022-07-01T09:10:19;2.83;;;1.02;;
10503;SDS011;5299;48.704;9.138;2022-07-01T09:14:21;2.40;;;1.02;;
10503;SDS011;5299;48.704;9.138;2022-07-01T09:18:24;1.70;;;1.00;;
10503;SDS011;5299;48.704;9.138;2022-07-01T09:22:26;5.93;;;1.95;;
10503;SDS011;5299;48.704;9.138;2022-07-01T09:26:27;3.22;;;1.33;;
10503;SDS011;5299;48.704;9.138;2022-07-01T09:30:29;2.92;;;1.48;;
10503;SDS011;5299;48.704;9.138;2022-07-01T09:34:34;2.85;;;1.38;;
10503;SDS011;5299;48.704;9.138;2022-07-01T09:38:47;2.10;;;1.00;;
10503;SDS011;5299;48.704;9.138;2022-07-01T09:42:49;3.45;;;1.42;;
10503;SDS011;5299;48.704;9.138;2022-07-01T09:46:52;3.17;;;1.73;;
10503;SDS011;5299;48.704;9.138;2022-07-01T09:50:57;2.03;;;1.10;;
10503;SDS011;5299;48.704;9.138;2022-07-01T09:54:58;3.05;;;1.17;;
10503;SDS011;5299;48.704;9.138;2022-07-01T09:59:00;1.80;;;0.93;;
10503;SDS011;5299;48.704;9.138;2022-07-01T10:03:03;2.60;;;1.10;;
10503;SDS011;5299;48.704;9.138;2022-07-01T10:16:09;2.35;;;1.13;;
10503;SDS011;5299;48.704;9.138;2022-07-01T10:20:13;1.50;;;0.90;;
10503;SDS011;5299;48.704;9.138;2022-07-01T10:24:24;1.13;;;0.80;;
10503;SDS011;5299;48.704;9.138;2022-07-01T10:28:27;4.03;;;1.15;;
10503;SDS011;5299;48.704;9.138;2022-07-01T10:32:48;1.42;;;0.90;;
10503;SDS011;5299;48.704;9.138;2022-07-01T10:37:09;2.97;;;1.10;;
10503;SDS011;5299;48.704;9.138;2022-07-01T10:41:22;2.35;;;1.10;;
10503;SDS011;5299;48.704;9.138;2022-07-01T10:45:40;3.25;;;1.17;;
10503;SDS011;5299;48.704;9.138;2022-07-01T10:53:51;1.88;;;1.10;;
10503;SDS011;5299;48.704;9.138;2022-07-01T10:57:56;2.25;;;1.08;;
10503;SDS011;5299;48.704;9.138;2022-07-01T11:01:57;3.05;;;1.10;;
10503;SDS011;5299;48.704;9.138;2022-07-01T11:05:59;1.92;;;1.13;;
10503;SDS011;5299;48.704;9.138;2022-07-01T11:10:01;2.35;;;1.13;;
10503;SDS011;5299;48.704;9.138;2022-07-01T11:14:06;2.05;;;1.25;;
10503;SDS011;5299;48.704;9.138;2022-07-01T11:18:07;1.90;;;1.05;;
10503;SDS011;5299;48.704;9.138;2022-07-01T11:22:09;4.53;;;1.30;;
10503;SDS011;5299;48.704;9.138;2022-07-01T11:26:21;2.13;;;0.93;;
10503;SDS011;5299;48.704;9.138;2022-07-01T11:30:23;1.05;;;0.70;;
10503;SDS011;5299;48.704;9.138;2022-07-01T11:34:29;1.40;;;0.82;;
10503;SDS011;5299;48.704;9.138;2022-07-01T11:38:30;3.05;;;0.70;;
10503;SDS011;5299;48.704;9.138;2022-07-01T11:42:55;1.55;;;1.02;;
10503;SDS011;5299;48.704;9.138;2022-07-01T11:46:56;4.05;;;1.42;;
10503;SDS011;5299;48.704;9.138;2022-07-01T11:50:58;1.58;;;0.80;;
10503;SDS011;5299;48.704;9.138;2022-07-01T11:55:01;1.13;;;0.60;;
10503;SDS011;5299;48.704;9.138;2022-07-01T11:59:22;1.50;;;0.88;;
10503;SDS011;5299;48.704;9.138;2022-07-01T12:03:30;1.67;;;0.90;;
10503;SDS011;5299;48.704;9.138;2022-07-01T12:07:32;2.85;;;0.75;;
10503;SDS011;5299;48.704;9.138;2022-07-01T12:11:34;1.48;;;0.88;;
10503;SDS011;5299;48.704;9.138;2022-07-01T12:15:39;4.82;;;1.08;;
10503;SDS011;5299;48.704;9.138;2022-07-01T12:19:41;1.80;;;0.80;;
10503;SDS011;5299;48.704;9.138;2022-07-01T12:28:07;1.88;;;0.90;;
10503;SDS011;5299;48.704;9.138;2022-07-01T12:32:34;1.50;;;0.77;;
10503;SDS011;5299;48.704;9.138;2022-07-01T12:36:37;3.78;;;0.90;;
10503;SDS011;5299;48.704;9.138;2022-07-01T12:40:38;3.17;;;1.42;;
10503;SDS011;5299;48.704;9.138;2022-07-01T12:44:43;2.33;;;1.08;;
10503;SDS011;5299;48.704;9.138;2022-07-01T12:48:49;4.45;;;0.95;;
10503;SDS011;5299;48.704;9.138;2022-07-01T12:53:01;3.25;;;1.13;;
10503;SDS011;5299;48.704;9.138;2022-07-01T12:57:13;2.78;;;1.15;;
10503;SDS011;5299;48.704;9.138;2022-07-01T13:01:15;2.08;;;1.13;;
10503;SDS011;5299;48.704;9.138;2022-07-01T13:05:16;1.88;;;1.05;;
10503;SDS011;5299;48.704;9.138;2022-07-01T13:09:18;1.40;;;0.73;;
10503;SDS011;5299;48.704;9.138;2022-07-01T13:13:20;2.70;;;1.10;;
10503;SDS011;5299;48.704;9.138;2022-07-01T13:17:23;3.05;;;1.33;;
10503;SDS011;5299;48.704;9.138;2022-07-01T13:21:25;1.95;;;1.65;;
10503;SDS011;5299;48.704;9.138;2022-07-01T13:25:26;1.05;;;0.70;;
10503;SDS011;5299;48.704;9.138;2022-07-01T13:29:29;2.45;;;0.90;;
10503;SDS011;5299;48.704;9.138;2022-07-01T13:33:30;1.23;;;0.65;;
10503;SDS011;5299;48.704;9.138;2022-07-01T13:37:32;1.17;;;0.80;;
10503;SDS011;5299;48.704;9.138;2022-07-01T13:41:34;0.95;;;0.68;;
10503;SDS011;5299;48.704;9.138;2022-07-01T13:45:35;3.10;;;0.90;;
10503;SDS011;5299;48.704;9.138;2022-07-01T13:49:37;2.30;;;0.80;;
10503;SDS011;5299;48.704;9.138;2022-07-01T13:53:39;2.33;;;0.70;;
10503;SDS011;5299;48.704;9.138;2022-07-01T13:57:41;1.42;;;0.70;;
10503;SDS011;5299;48.704;9.138;2022-07-01T14:01:42;3.25;;;0.80;;
10503;SDS011;5299;48.704;9.138;2022-07-01T14:05:44;1.88;;;0.90;;
10503;SDS011;5299;48.704;9.138;2022-07-01T14:09:46;2.70;;;0.90;;
10503;SDS011;5299;48.704;9.138;2022-07-01T14:13:48;3.63;;;1.48;;
10503;SDS011;5299;48.704;9.138;2022-07-01T14:17:50;2.38;;;1.10;;
10503;SDS011;5299;48.704;9.138;2022-07-01T14:21:51;3.28;;;0.75;;
10503;SDS011;5299;48.704;9.138;2022-07-01T14:25:52;2.95;;;0.98;;
10503;SDS011;5299;48.704;9.138;2022-07-01T14:29:54;5.82;;;0.65;;
10503;SDS011;5299;48.704;9.138;2022-07-01T14:33:57;2.90;;;0.85;;
10503;SDS011;5299;48.704;9.138;2022-07-01T14:37:58;3.53;;;0.85;;
10503;SDS011;5299;48.704;9.138;2022-07-01T14:42:00;2.78;;;1.20;;
10503;SDS011;5299;48.704;9.138;2022-07-01T14:46:02;2.85;;;0.95;;
10503;SDS011;5299;48.704;9.138;2022-07-01T14:50:09;3.83;;;1.05;;
10503;SDS011;5299;48.704;9.138;2022-07-01T14:54:12;2.20;;;0.70;;
10503;SDS011;5299;48.704;9.138;2022-07-01T14:58:13;1.10;;;0.50;;
10503;SDS011;5299;48.704;9.138;2022-07-01T15:02:15;4.07;;;0.80;;
10503;SDS011;5299;48.704;9.138;2022-07-01T15:06:16;1.95;;;0.70;;
10503;SDS011;5299;48.704;9.138;2022-07-01T15:10:18;1.40;;;0.70;;
10503;SDS011;5299;48.704;9.138;2022-07-01T15:14:19;1.83;;;0.77;;
10503;SDS011;5299;48.704;9.138;2022-07-01T15:18:21;1.92;;;0.80;;
10503;SDS011;5299;48.704;9.138;2022-07-01T15:22:23;1.95;;;0.82;;
10503;SDS011;5299;48.704;9.138;2022-07-01T15:26:25;1.13;;;0.68;;
10503;SDS011;5299;48.704;9.138;2022-07-01T15:30:26;1.40;;;0.60;;
10503;SDS011;5299;48.704;9.138;2022-07-01T15:34:28;2.03;;;0.80;;
10503;SDS011;5299;48.704;9.138;2022-07-01T15:38:29;1.92;;;0.68;;
10503;SDS011;5299;48.704;9.138;2022-07-01T15:42:31;2.53;;;0.60;;
10503;SDS011;5299;48.704;9.138;2022-07-01T15:46:32;0.85;;;0.65;;
10503;SDS011;5299;48.704;9.138;2022-07-01T15:50:36;1.40;;;0.50;;
10503;SDS011;5299;48.704;9.138;2022-07-01T15:54:39;2.97;;;0.70;;
10503;SDS011;5299;48.704;9.138;2022-07-01T15:58:40;1.88;;;0.63;;
10503;SDS011;5299;48.704;9.138;2022-07-01T16:02:42;3.55;;;0.75;;
10503;SDS011;5299;48.704;9.138;2022-07-01T16:06:43;2.67;;;0.60;;
10503;SDS011;5299;48.704;9.138;2022-07-01T16:10:49;1.00;;;0.57;;
10503;SDS011;5299;48.704;9.138;2022-07-01T16:14:55;0.65;;;0.47;;
10503;SDS011;5299;48.704;9.138;2022-07-01T16:18:58;1.25;;;0.60;;
10503;SDS011;5299;48.704;9.138;2022-07-01T16:23:03;0.95;;;0.50;;
10503;SDS011;5299;48.704;9.138;2022-07-01T16:27:05;2.53;;;1.10;;
10503;SDS011;5299;48.704;9.138;2022-07-01T16:31:07;1.13;;;0.60;;
10503;SDS011;5299;48.704;9.138;2022-07-01T16:35:09;3.20;;;0.63;;
10503;SDS011;5299;48.704;9.138;2022-07-01T16:39:11;1.40;;;0.50;;
10503;SDS011;5299;48.704;9.138;2022-07-01T16:43:16;1.10;;;0.57;;
10503;SDS011;5299;48.704;9.138;2022-07-01T16:51:35;3.90;;;1.10;;
10503;SDS011;5299;48.704;9.138;2022-07-01T16:55:43;2.28;;;0.70;;
10503;SDS011;5299;48.704;9.138;2022-07-01T16:59:45;1.23;;;0.70;;
10503;SDS011;5299;48.704;9.138;2022-07-01T17:03:47;4.40;;;0.90;;
10503;SDS011;5299;48.704;9.138;2022-07-01T17:07:49;1.60;;;0.60;;
10503;SDS011;5299;48.704;9.138;2022-07-01T17:11:52;1.65;;;0.50;;
10503;SDS011;5299;48.704;9.138;2022-07-01T17:15:54;3.30;;;0.82;;
10503;SDS011;5299;48.704;9.138;2022-07-01T17:19:57;1.05;;;0.60;;
10503;SDS011;5299;48.704;9.138;2022-07-01T17:24:00;2.28;;;0.70;;
10503;SDS011;5299;48.704;9.138;2022-07-01T17:32:32;0.60;;;0.50;;
10503;SDS011;5299;48.704;9.138;2022-07-01T17:36:38;0.88;;;0.40;;
10503;SDS011;5299;48.704;9.138;2022-07-01T17:40:43;2.50;;;0.70;;
10503;SDS011;5299;48.704;9.138;2022-07-01T17:44:46;2.63;;;0.50;;
10503;SDS011;5299;48.704;9.138;2022-07-01T17:48:49;1.42;;;0.55;;
10503;SDS011;5299;48.704;9.138;2022-07-01T17:52:53;3.33;;;0.70;;
10503;SDS011;5299;48.704;9.138;2022-07-01T17:56:55;2.30;;;0.90;;
10503;SDS011;5299;48.704;9.138;2022-07-01T18:00:57;1.70;;;0.55;;
10503;SDS011;5299;48.704;9.138;2022-07-01T18:04:59;3.33;;;1.08;;
10503;SDS011;5299;48.704;9.138;2022-07-01T18:09:01;1.95;;;0.70;;
10503;SDS011;5299;48.704;9.138;2022-07-01T18:13:03;1.65;;;0.50;;
10503;SDS011;5299;48.704;9.138;2022-07-01T18:21:38;2.78;;;0.73;;
10503;SDS011;5299;48.704;9.138;2022-07-01T18:25:41;3.28;;;0.70;;
10503;SDS011;5299;48.704;9.138;2022-07-01T18:29:44;1.40;;;0.50;;
10503;SDS011;5299;48.704;9.138;2022-07-01T18:33:55;0.90;;;0.60;;
10503;SDS011;5299;48.704;9.138;2022-07-01T18:37:58;1.92;;;0.60;;
10503;SDS011;5299;48.704;9.138;2022-07-01T18:42:02;0.75;;;0.50;;
10503;SDS011;5299;48.704;9.138;2022-07-01T18:46:04;1.00;;;0.70;;
10503;SDS011;5299;48.704;9.138;2022-07-01T18:50:08;3.25;;;0.57;;
10503;SDS011;5299;48.704;9.138;2022-07-01T18:54:12;1.65;;;0.85;;
10503;SDS011;5299;48.704;9.138;2022-07-01T18:58:14;4.88;;;0.70;;
10503;SDS011;5299;48.704;9.138;2022-07-01T19:02:20;2.53;;;0.60;;
10503;SDS011;5299;48.704;9.138;2022-07-01T19:06:21;1.60;;;0.60;;
10503;SDS011;5299;48.704;9.138;2022-07-01T19:10:23;1.55;;;0.70;;
10503;SDS011;5299;48.704;9.138;2022-07-01T19:14:24;2.53;;;0.70;;
10503;SDS011;5299;48.704;9.138;2022-07-01T19:18:26;2.65;;;1.55;;
10503;SDS011;5299;48.704;9.138;2022-07-01T19:22:27;1.75;;;0.88;;
10503;SDS011;5299;48.704;9.138;2022-07-01T19:26:29;2.28;;;0.90;;
10503;SDS011;5299;48.704;9.138;2022-07-01T19:30:31;1.48;;;0.90;;
10503;SDS011;5299;48.704;9.138;2022-07-01T19:34:33;4.88;;;1.13;;
10503;SDS011;5299;48.704;9.138;2022-07-01T19:38:34;2.83;;;1.00;;
10503;SDS011;5299;48.704;9.138;2022-07-01T19:42:36;2.25;;;1.10;;
10503;SDS011;5299;48.704;9.138;2022-07-01T19:46:39;0.98;;;0.55;;
10503;SDS011;5299;48.704;9.138;2022-07-01T19:50:41;1.08;;;0.70;;
10503;SDS011;5299;48.704;9.138;2022-07-01T19:54:43;1.27;;;0.80;;
10503;SDS011;5299;48.704;9.138;2022-07-01T19:58:45;2.05;;;0.90;;
10503;SDS011;5299;48.704;9.138;2022-07-01T20:02:46;1.88;;;0.82;;
10503;SDS011;5299;48.704;9.138;2022-07-01T20:06:48;1.85;;;0.85;;
10503;SDS011;5299;48.704;9.138;2022-07-01T20:10:53;2.65;;;1.17;;
10503;SDS011;5299;48.704;9.138;2022-07-01T20:14:54;3.55;;;1.33;;
10503;SDS011;5299;48.704;9.138;2022-07-01T20:18:56;2.65;;;1.58;;
10503;SDS011;5299;48.704;9.138;2022-07-01T20:22:58;5.70;;;2.28;;
10503;SDS011;5299;48.704;9.138;2022-07-01T20:27:00;4.47;;;1.92;;
10503;SDS011;5299;48.704;9.138;2022-07-01T20:31:02;4.60;;;1.80;;
10503;SDS011;5299;48.704;9.138;2022-07-01T20:35:03;5.07;;;1.85;;
10503;SDS011;5299;48.704;9.138;2022-07-01T20:39:05;3.13;;;1.75;;
10503;SDS011;5299;48.704;9.138;2022-07-01T20:43:09;2.92;;;1.30;;
10503;SDS011;5299;48.704;9.138;2022-07-01T20:47:10;2.97;;;1.50;;
10503;SDS011;5299;48.704;9.138;2022-07-01T20:51:13;2.45;;;1.23;;
10503;SDS011;5299;48.704;9.138;2022-07-01T20:55:14;5.45;;;1.83;;
10503;SDS011;5299;48.704;9.138;2022-07-01T20:59:16;2.40;;;1.42;;
10503;SDS011;5299;48.704;9.138;2022-07-01T21:03:36;6.20;;;1.67;;
10503;SDS011;5299;48.704;9.138;2022-07-01T21:07:41;3.65;;;1.45;;
10503;SDS011;5299;48.704;9.138;2022-07-01T21:11:43;3.13;;;1.38;;
10503;SDS011;5299;48.704;9.138;2022-07-01T21:15:44;4.03;;;1.30;;
10503;SDS011;5299;48.704;9.138;2022-07-01T21:19:46;3.58;;;1.30;;
10503;SDS011;5299;48.704;9.138;2022-07-01T21:23:47;5.13;;;1.70;;
10503;SDS011;5299;48.704;9.138;2022-07-01T21:27:49;3.40;;;1.77;;
10503;SDS011;5299;48.704;9.138;2022-07-01T21:31:51;4.80;;;2.40;;
10503;SDS011;5299;48.704;9.138;2022-07-01T21:35:53;5.32;;;2.45;;
10503;SDS011;5299;48.704;9.138;2022-07-01T21:39:56;3.70;;;2.05;;
10503;SDS011;5299;48.704;9.138;2022-07-01T21:43:57;3.50;;;1.73;;
10503;SDS011;5299;48.704;9.138;2022-07-01T21:48:03;5.32;;;1.55;;
10503;SDS011;5299;48.704;9.138;2022-07-01T21:52:05;5.38;;;1.80;;
10503;SDS011;5299;48.704;9.138;2022-07-01T21:56:10;3.38;;;1.58;;
10503;SDS011;5299;48.704;9.138;2022-07-01T22:00:22;3.45;;;1.67;;
10503;SDS011;5299;48.704;9.138;2022-07-01T22:04:24;1.55;;;1.02;;
10503;SDS011;5299;48.704;9.138;2022-07-01T22:08:25;4.00;;;2.50;;
10503;SDS011;5299;48.704;9.138;2022-07-01T22:12:27;3.40;;;1.40;;
10503;SDS011;5299;48.704;9.138;2022-07-01T22:16:33;9.45;;;5.35;;
10503;SDS011;5299;48.704;9.138;2022-07-01T22:20:36;6.75;;;4.35;;
10503;SDS011;5299;48.704;9.138;2022-07-01T22:24:39;7.85;;;3.47;;
10503;SDS011;5299;48.704;9.138;2022-07-01T22:28:41;6.03;;;2.33;;
10503;SDS011;5299;48.704;9.138;2022-07-01T22:32:43;10.77;;;3.30;;
10503;SDS011;5299;48.704;9.138;2022-07-01T22:36:48;9.35;;;3.15;;
10503;SDS011;5299;48.704;9.138;2022-07-01T22:40:51;9.25;;;3.22;;
10503;SDS011;5299;48.704;9.138;2022-07-01T22:44:53;6.25;;;2.30;;
10503;SDS011;5299;48.704;9.138;2022-07-01T22:53:25;6.88;;;1.58;;
10503;SDS011;5299;48.704;9.138;2022-07-01T22:57:39;3.35;;;1.55;;
10503;SDS011;5299;48.704;9.138;2022-07-01T23:01:46;5.68;;;1.83;;
10503;SDS011;5299;48.704;9.138;2022-07-01T23:05:57;4.18;;;1.55;;
10503;SDS011;5299;48.704;9.138;2022-07-01T23:10:00;2.92;;;1.45;;
10503;SDS011;5299;48.704;9.138;2022-07-01T23:14:05;2.03;;;1.40;;
10503;SDS011;5299;48.704;9.138;2022-07-01T23:18:30;6.93;;;1.48;;
10503;SDS011;5299;48.704;9.138;2022-07-01T23:22:32;2.55;;;1.27;;
10503;SDS011;5299;48.704;9.138;2022-07-01T23:26:36;2.30;;;1.35;;
10503;SDS011;5299;48.704;9.138;2022-07-01T23:30:41;3.85;;;1.35;;
10503;SDS011;5299;48.704;9.138;2022-07-01T23:34:43;3.70;;;1.77;;
10503;SDS011;5299;48.704;9.138;2022-07-01T23:38:45;1.75;;;1.48;;
10503;SDS011;5299;48.704;9.138;2022-07-01T23:42:47;4.38;;;2.13;;
10503;SDS011;5299;48.704;9.138;2022-07-01T23:46:48;4.22;;;1.90;;
10503;SDS011;5299;48.704;9.138;2022-07-01T23:50:50;2.92;;;1.75;;
10503;SDS011;5299;48.704;9.138;2022-07-01T23:54:51;6.28;;;2.08;;
10503;SDS011;5299;48.704;9.138;2022-07-01T23:58:53;4.28;;;1.30;;
